»·PEaware :: UAL1513 KSFO-KEUG

UAL1513 :: KSFO-KEUG

FLIGHT INFORMATION

Flight Status: Arrived
Operator:
United Airlines
More flights by this operator :: More flights under this callsign
Pilot: Brandon G. (13)
Aircraft: AIRBUS A319
(A319)
More flights by this aircraft type
Origin: KSFO San Francisco Intl
United States
Destination: KEUG Mahlon Sweet
United States
More flights between these airports :: More routes between these airports
Route: TRUNK2 GRTFL EUG
File this flight plan on PilotEdge
Remarks:
Altitude:
(Current/Filed)
30,000ft
Speed:
(Current/Filed)
450kts
Departed: 27-Nov-18 12:04 PM
Arrived: 27-Nov-18 01:13 PM
Distance/Time
Traveled:
392nm/1:08
Distance/Time
To Go:
Arrived

Flight Plot

Page will automatically refresh every two minutes.

Flight plan parsing failed; only flown route is shown


Map Options




Map Legend


Flown Route
Filed Route
Departure Airport
Arrival Airport
Navaid (VOR, NDB)
Fix

Horizontal Profiles

Position Reports

Time Latitude Longitude Heading Altitude Ground
Speed
27-Nov-18 11:34 37.618902 -122.385940 170 32ft 0kts
27-Nov-18 11:35 37.618902 -122.385940 170 32ft 0kts
27-Nov-18 11:36 37.618902 -122.385940 170 32ft 0kts
27-Nov-18 11:37 37.618902 -122.385940 170 32ft 0kts
27-Nov-18 11:38 37.618902 -122.385940 170 32ft 0kts
27-Nov-18 11:39 37.618902 -122.385940 170 32ft 0kts
27-Nov-18 11:40 37.618902 -122.385940 170 32ft 0kts
27-Nov-18 11:41 37.618902 -122.385940 170 32ft 0kts
27-Nov-18 11:42 37.618902 -122.385940 170 32ft 0kts
27-Nov-18 11:43 37.618902 -122.385940 170 32ft 0kts
27-Nov-18 11:44 37.618902 -122.385940 170 32ft 0kts
27-Nov-18 11:45 37.618903 -122.385940 170 32ft 0kts
27-Nov-18 11:46 37.618903 -122.385940 170 32ft 0kts
27-Nov-18 11:47 37.619128 -122.385987 170 32ft 2kts
27-Nov-18 11:48 37.619449 -122.386298 107 32ft 1kts
27-Nov-18 11:49 37.619450 -122.386303 108 32ft 0kts
27-Nov-18 11:50 37.619450 -122.386303 108 32ft 0kts
27-Nov-18 11:51 37.619450 -122.386303 108 32ft 0kts
27-Nov-18 11:53 37.619451 -122.386303 108 32ft 0kts
27-Nov-18 11:54 37.619451 -122.386303 108 32ft 0kts
27-Nov-18 11:55 37.619450 -122.386303 108 32ft 0kts
27-Nov-18 11:56 37.619451 -122.386303 108 32ft 0kts
27-Nov-18 11:57 37.619451 -122.386303 108 32ft 0kts
27-Nov-18 11:58 37.619451 -122.386303 108 32ft 0kts
27-Nov-18 11:59 37.619451 -122.386303 108 32ft 0kts
27-Nov-18 12:00 37.619450 -122.386303 108 32ft 0kts
27-Nov-18 12:01 37.619432 -122.386101 85 32ft 5kts
27-Nov-18 12:02 37.620245 -122.385180 27 32ft 0kts
27-Nov-18 12:03 37.620522 -122.384107 115 32ft 15kts
27-Nov-18 12:04 37.615257 -122.380544 209 32ft 29kts
27-Nov-18 12:05 37.609357 -122.383615 140 32ft 9kts
27-Nov-18 12:06 37.609008 -122.383334 140 32ft 3kts
27-Nov-18 12:07 37.615951 -122.377582 27 27ft 122kts
27-Nov-18 12:08 37.650350 -122.341692 57 2049ft 175kts
27-Nov-18 12:09 37.683185 -122.280281 55 3832ft 244kts
27-Nov-18 12:10 37.727075 -122.216418 12 6282ft 274kts
27-Nov-18 12:11 37.741585 -122.214340 355 6939ft 270kts
27-Nov-18 12:12 37.809201 -122.217043 353 9661ft 281kts
27-Nov-18 12:13 37.895166 -122.219775 353 11219ft 343kts
27-Nov-18 12:14 37.994275 -122.222288 352 13710ft 365kts
27-Nov-18 12:15 38.097353 -122.225000 351 16142ft 376kts
27-Nov-18 12:16 38.203103 -122.227771 350 18285ft 384kts
27-Nov-18 12:17 38.311202 -122.230693 349 20252ft 392kts
27-Nov-18 12:18 38.420002 -122.242493 343 21962ft 396kts
27-Nov-18 12:19 38.530244 -122.260066 342 23631ft 403kts
27-Nov-18 12:20 38.642682 -122.277944 342 25162ft 410kts
27-Nov-18 12:21 38.756618 -122.296084 341 26528ft 416kts
27-Nov-18 12:22 38.872232 -122.314566 341 27764ft 421kts
27-Nov-18 12:23 38.988680 -122.333187 340 28957ft 423kts
27-Nov-18 12:24 39.105232 -122.351944 340 30075ft 426kts
27-Nov-18 12:25 39.222833 -122.370724 340 30160ft 424kts
27-Nov-18 12:26 39.340253 -122.389700 340 30143ft 424kts
27-Nov-18 12:27 39.457594 -122.408763 340 30124ft 425kts
27-Nov-18 12:28 39.574869 -122.427853 340 30122ft 424kts
27-Nov-18 12:29 39.691233 -122.446888 340 30125ft 424kts
27-Nov-18 12:30 39.808493 -122.466129 340 30127ft 425kts
27-Nov-18 12:31 39.925914 -122.485453 340 30128ft 424kts
27-Nov-18 12:32 40.043239 -122.504839 340 30128ft 424kts
27-Nov-18 12:33 40.160690 -122.524219 340 30126ft 425kts
27-Nov-18 12:34 40.276874 -122.543407 340 30121ft 424kts
27-Nov-18 12:35 40.394020 -122.562923 340 30105ft 425kts
27-Nov-18 12:36 40.511723 -122.582650 340 30102ft 425kts
27-Nov-18 12:37 40.628895 -122.602326 340 30102ft 424kts
27-Nov-18 12:38 40.746021 -122.622085 340 30101ft 424kts
27-Nov-18 12:39 40.862832 -122.641871 340 30101ft 424kts
27-Nov-18 12:40 40.979546 -122.661990 339 30099ft 424kts
27-Nov-18 12:41 41.099020 -122.682867 341 30067ft 441kts
27-Nov-18 12:42 41.220562 -122.703353 342 30035ft 446kts
27-Nov-18 12:43 41.343363 -122.724287 342 30028ft 445kts
27-Nov-18 12:44 41.465840 -122.745390 342 30028ft 445kts
27-Nov-18 12:45 41.588425 -122.766614 342 30028ft 445kts
27-Nov-18 12:46 41.710687 -122.787846 342 30028ft 445kts
27-Nov-18 12:47 41.833365 -122.809249 342 30027ft 445kts
27-Nov-18 12:48 41.956214 -122.830770 342 30028ft 445kts
27-Nov-18 12:49 42.077329 -122.852056 342 30006ft 445kts
27-Nov-18 12:50 42.200169 -122.873555 342 29980ft 445kts
27-Nov-18 12:51 42.321574 -122.894998 342 29974ft 444kts
27-Nov-18 12:52 42.444845 -122.916892 342 29973ft 445kts
27-Nov-18 12:53 42.567541 -122.938762 342 29974ft 444kts
27-Nov-18 12:54 42.689820 -122.960676 342 29498ft 444kts
27-Nov-18 12:55 42.811623 -122.982545 342 27537ft 435kts
27-Nov-18 12:56 42.930067 -123.003955 343 25591ft 423kts
27-Nov-18 12:57 43.045264 -123.024915 345 23912ft 419kts
27-Nov-18 12:58 43.160029 -123.045589 345 21957ft 408kts
27-Nov-18 12:59 43.270686 -123.065659 345 20197ft 394kts
27-Nov-18 13:00 43.377761 -123.085272 345 18458ft 382kts
27-Nov-18 13:01 43.481319 -123.104346 345 16748ft 372kts
27-Nov-18 13:02 43.582414 -123.123008 346 15226ft 356kts
27-Nov-18 13:03 43.676502 -123.140338 345 13965ft 333kts
27-Nov-18 13:04 43.767017 -123.157160 346 12451ft 321kts
27-Nov-18 13:05 43.852715 -123.173118 346 10529ft 302kts
27-Nov-18 13:06 43.930918 -123.187614 345 9582ft 258kts
27-Nov-18 13:07 43.990430 -123.232560 323 7777ft 246kts
27-Nov-18 13:08 44.045869 -123.277268 324 6935ft 207kts
27-Nov-18 13:09 44.095101 -123.316772 325 5575ft 202kts
27-Nov-18 13:10 44.149016 -123.331069 356 4245ft 190kts
27-Nov-18 13:11 44.201587 -123.327800 20 3609ft 196kts
27-Nov-18 13:12 44.226865 -123.267857 101 2377ft 183kts
27-Nov-18 13:13 44.201521 -123.223319 162 1737ft 142kts
27-Nov-18 13:14 44.162926 -123.219362 181 959ft 139kts
27-Nov-18 13:15 44.125787 -123.219093 178 367ft 97kts
27-Nov-18 13:16 44.119484 -123.214322 60 371ft 0kts
27-Nov-18 13:17 44.119484 -123.214322 60 371ft 0kts
27-Nov-18 13:18 44.119484 -123.214322 60 371ft 0kts
27-Nov-18 13:19 44.119484 -123.214322 60 371ft 0kts
27-Nov-18 13:20 44.119484 -123.214322 60 371ft 0kts
27-Nov-18 13:21 44.119484 -123.214322 60 371ft 0kts
27-Nov-18 13:22 44.119484 -123.214322 60 371ft 0kts
27-Nov-18 13:23 44.119484 -123.214322 60 371ft 0kts
27-Nov-18 13:24 44.119484 -123.214322 60 371ft 0kts
27-Nov-18 13:25 44.119484 -123.214322 60 371ft 0kts
27-Nov-18 13:26 44.119484 -123.214322 60 371ft 0kts
27-Nov-18 13:27 44.119484 -123.214322 60 371ft 0kts
27-Nov-18 13:28 44.119484 -123.214322 60 371ft 0kts
27-Nov-18 13:29 44.119484 -123.214322 60 371ft 0kts
27-Nov-18 13:30 44.119484 -123.214322 60 371ft 0kts

Navigation Log

Ident Type
Flight plan parsing failed, navigation log unavailable